Mount Moriah, Missouri
Current Conditions -  °F | °C
As of 12:53 PM on Friday 24 Oct 2014 (Local Time) from KLWD Reporting Station
Haze Haze  
Wind Chill: 60°   Ceiling: 200
Heat Index: 60°   Visibility: 2mi
Dew Point: 59°   Wind: 15mph
Humidity: 96%   Direction: 180°S
Pressure: 29.97"   Gusts: NA
Location:  40.33°N, 93.8°W
Report Text: KLWD 241753Z AUTO 18013KT 2SM BR OVC002 16/15 A2997 RMK AO2 SLP147 T01560150 10156 20133 58014
Loading
Personal Weather Stations






























Interactive Weather Map
Tropical Storm Tracking
New forecast layout! Learn more

10-Day Weather Forecast

Advertisements
Track Severe Weather on mobile